sensor_id;sensor_type;location;lat;lon;timestamp;temperature;humidity
64937;SHT30;51452;47.698;19.050;2022-12-11T00:01:59;5.62;87.62
64937;SHT30;51452;47.698;19.050;2022-12-11T00:04:25;5.60;87.22
64937;SHT30;51452;47.698;19.050;2022-12-11T00:06:51;5.59;87.01
64937;SHT30;51452;47.698;19.050;2022-12-11T00:09:18;5.59;86.87
64937;SHT30;51452;47.698;19.050;2022-12-11T00:11:43;5.55;86.82
64937;SHT30;51452;47.698;19.050;2022-12-11T00:14:09;5.58;87.10
64937;SHT30;51452;47.698;19.050;2022-12-11T00:16:34;5.53;86.65
64937;SHT30;51452;47.698;19.050;2022-12-11T00:19:00;5.53;86.59
64937;SHT30;51452;47.698;19.050;2022-12-11T00:21:25;5.42;86.92
64937;SHT30;51452;47.698;19.050;2022-12-11T00:23:51;5.35;86.82
64937;SHT30;51452;47.698;19.050;2022-12-11T00:26:17;5.35;86.89
64937;SHT30;51452;47.698;19.050;2022-12-11T00:28:43;5.36;86.84
64937;SHT30;51452;47.698;19.050;2022-12-11T00:31:13;5.28;86.89
64937;SHT30;51452;47.698;19.050;2022-12-11T00:33:38;5.18;86.62
64937;SHT30;51452;47.698;19.050;2022-12-11T00:36:10;5.24;87.03
64937;SHT30;51452;47.698;19.050;2022-12-11T00:38:36;5.17;87.23
64937;SHT30;51452;47.698;19.050;2022-12-11T00:41:01;5.19;87.28
64937;SHT30;51452;47.698;19.050;2022-12-11T00:43:27;5.21;87.08
64937;SHT30;51452;47.698;19.050;2022-12-11T00:45:52;5.24;87.04
64937;SHT30;51452;47.698;19.050;2022-12-11T00:48:17;5.12;87.09
64937;SHT30;51452;47.698;19.050;2022-12-11T00:50:43;5.14;87.10
64937;SHT30;51452;47.698;19.050;2022-12-11T00:53:08;5.08;87.06
64937;SHT30;51452;47.698;19.050;2022-12-11T00:55:38;5.02;87.31
64937;SHT30;51452;47.698;19.050;2022-12-11T00:58:03;4.97;87.78
64937;SHT30;51452;47.698;19.050;2022-12-11T01:00:29;4.95;86.97
64937;SHT30;51452;47.698;19.050;2022-12-11T01:02:55;4.88;87.24
64937;SHT30;51452;47.698;19.050;2022-12-11T01:05:20;4.88;87.64
64937;SHT30;51452;47.698;19.050;2022-12-11T01:07:46;4.90;87.65
64937;SHT30;51452;47.698;19.050;2022-12-11T01:10:12;4.76;87.57
64937;SHT30;51452;47.698;19.050;2022-12-11T01:12:56;4.70;87.55
64937;SHT30;51452;47.698;19.050;2022-12-11T01:15:24;4.60;87.32
64937;SHT30;51452;47.698;19.050;2022-12-11T01:17:51;4.61;87.61
64937;SHT30;51452;47.698;19.050;2022-12-11T01:20:17;4.49;86.97
64937;SHT30;51452;47.698;19.050;2022-12-11T01:22:43;4.43;87.73
64937;SHT30;51452;47.698;19.050;2022-12-11T01:25:09;4.36;88.00
64937;SHT30;51452;47.698;19.050;2022-12-11T01:27:35;4.33;87.57
64937;SHT30;51452;47.698;19.050;2022-12-11T01:30:01;4.23;87.60
64937;SHT30;51452;47.698;19.050;2022-12-11T01:32:27;4.15;88.28
64937;SHT30;51452;47.698;19.050;2022-12-11T01:34:53;4.13;88.22
64937;SHT30;51452;47.698;19.050;2022-12-11T01:37:19;4.05;87.67
64937;SHT30;51452;47.698;19.050;2022-12-11T01:39:44;3.98;87.86
64937;SHT30;51452;47.698;19.050;2022-12-11T01:42:16;3.91;88.23
64937;SHT30;51452;47.698;19.050;2022-12-11T01:47:07;3.82;88.68
64937;SHT30;51452;47.698;19.050;2022-12-11T01:49:33;3.81;88.60
64937;SHT30;51452;47.698;19.050;2022-12-11T01:52:03;3.82;89.25
64937;SHT30;51452;47.698;19.050;2022-12-11T01:54:30;3.74;89.08
64937;SHT30;51452;47.698;19.050;2022-12-11T01:57:00;3.67;89.19
64937;SHT30;51452;47.698;19.050;2022-12-11T01:59:29;3.63;89.17
64937;SHT30;51452;47.698;19.050;2022-12-11T02:02:01;3.60;89.38
64937;SHT30;51452;47.698;19.050;2022-12-11T02:04:29;3.60;89.68
64937;SHT30;51452;47.698;19.050;2022-12-11T02:06:55;3.50;89.15
64937;SHT30;51452;47.698;19.050;2022-12-11T02:09:29;3.44;89.28
64937;SHT30;51452;47.698;19.050;2022-12-11T02:31:11;3.16;89.88
64937;SHT30;51452;47.698;19.050;2022-12-11T02:33:52;3.13;89.83
64937;SHT30;51452;47.698;19.050;2022-12-11T02:36:22;3.06;89.37
64937;SHT30;51452;47.698;19.050;2022-12-11T02:38:50;3.03;89.45
64937;SHT30;51452;47.698;19.050;2022-12-11T02:41:17;3.00;88.74
64937;SHT30;51452;47.698;19.050;2022-12-11T02:43:44;2.96;89.41
64937;SHT30;51452;47.698;19.050;2022-12-11T02:46:12;2.93;89.49
64937;SHT30;51452;47.698;19.050;2022-12-11T02:48:39;2.81;88.99
64937;SHT30;51452;47.698;19.050;2022-12-11T02:51:06;2.78;89.55
64937;SHT30;51452;47.698;19.050;2022-12-11T02:53:36;2.81;89.32
64937;SHT30;51452;47.698;19.050;2022-12-11T02:56:10;2.81;89.27
64937;SHT30;51452;47.698;19.050;2022-12-11T02:58:43;2.79;89.02
64937;SHT30;51452;47.698;19.050;2022-12-11T03:01:09;2.79;89.30
64937;SHT30;51452;47.698;19.050;2022-12-11T03:03:35;2.74;88.84
64937;SHT30;51452;47.698;19.050;2022-12-11T03:06:00;2.71;88.96
64937;SHT30;51452;47.698;19.050;2022-12-11T03:08:26;2.79;88.59
64937;SHT30;51452;47.698;19.050;2022-12-11T03:10:51;2.65;89.22
64937;SHT30;51452;47.698;19.050;2022-12-11T03:13:19;2.66;89.01
64937;SHT30;51452;47.698;19.050;2022-12-11T03:19:23;2.61;88.69
64937;SHT30;51452;47.698;19.050;2022-12-11T03:21:54;2.58;88.95
64937;SHT30;51452;47.698;19.050;2022-12-11T03:24:26;2.61;88.71
64937;SHT30;51452;47.698;19.050;2022-12-11T03:26:59;2.51;88.56
64937;SHT30;51452;47.698;19.050;2022-12-11T03:29:30;2.51;88.52
64937;SHT30;51452;47.698;19.050;2022-12-11T03:32:15;2.57;88.76
64937;SHT30;51452;47.698;19.050;2022-12-11T03:35:07;2.58;88.65
64937;SHT30;51452;47.698;19.050;2022-12-11T03:37:34;2.45;88.41
64937;SHT30;51452;47.698;19.050;2022-12-11T03:40:04;2.47;88.32
64937;SHT30;51452;47.698;19.050;2022-12-11T03:42:32;2.52;88.43
64937;SHT30;51452;47.698;19.050;2022-12-11T03:44:58;2.48;88.41
64937;SHT30;51452;47.698;19.050;2022-12-11T03:47:26;2.54;88.53
64937;SHT30;51452;47.698;19.050;2022-12-11T03:49:54;2.45;88.21
64937;SHT30;51452;47.698;19.050;2022-12-11T03:52:20;2.38;87.82
64937;SHT30;51452;47.698;19.050;2022-12-11T03:54:48;2.41;88.28
64937;SHT30;51452;47.698;19.050;2022-12-11T03:57:18;2.40;88.15
64937;SHT30;51452;47.698;19.050;2022-12-11T03:59:45;2.33;87.93
64937;SHT30;51452;47.698;19.050;2022-12-11T04:02:10;2.37;88.31
64937;SHT30;51452;47.698;19.050;2022-12-11T04:04:40;2.31;88.17
64937;SHT30;51452;47.698;19.050;2022-12-11T04:07:07;2.24;87.72
64937;SHT30;51452;47.698;19.050;2022-12-11T04:09:32;2.27;88.11
64937;SHT30;51452;47.698;19.050;2022-12-11T04:11:58;2.33;88.59
64937;SHT30;51452;47.698;19.050;2022-12-11T04:14:23;2.30;88.47
64937;SHT30;51452;47.698;19.050;2022-12-11T04:17:07;2.27;88.23
64937;SHT30;51452;47.698;19.050;2022-12-11T04:19:33;2.31;88.58
64937;SHT30;51452;47.698;19.050;2022-12-11T04:22:17;2.31;88.33
64937;SHT30;51452;47.698;19.050;2022-12-11T04:25:04;2.31;88.30
64937;SHT30;51452;47.698;19.050;2022-12-11T04:27:30;2.31;88.12
64937;SHT30;51452;47.698;19.050;2022-12-11T04:30:19;2.30;88.09
64937;SHT30;51452;47.698;19.050;2022-12-11T04:32:45;2.28;88.12
64937;SHT30;51452;47.698;19.050;2022-12-11T04:35:12;2.26;88.04
64937;SHT30;51452;47.698;19.050;2022-12-11T04:37:38;2.31;88.28
64937;SHT30;51452;47.698;19.050;2022-12-11T04:40:05;2.27;88.48
64937;SHT30;51452;47.698;19.050;2022-12-11T04:42:31;2.27;88.04
64937;SHT30;51452;47.698;19.050;2022-12-11T04:44:56;2.23;88.23
64937;SHT30;51452;47.698;19.050;2022-12-11T04:47:22;2.17;88.33
64937;SHT30;51452;47.698;19.050;2022-12-11T04:49:47;2.17;88.50
64937;SHT30;51452;47.698;19.050;2022-12-11T04:52:13;2.21;88.17
64937;SHT30;51452;47.698;19.050;2022-12-11T04:54:38;2.09;87.86
64937;SHT30;51452;47.698;19.050;2022-12-11T04:57:04;2.14;88.82
64937;SHT30;51452;47.698;19.050;2022-12-11T04:59:31;2.07;88.45
64937;SHT30;51452;47.698;19.050;2022-12-11T05:01:56;2.10;88.65
64937;SHT30;51452;47.698;19.050;2022-12-11T05:04:22;2.00;88.56
64937;SHT30;51452;47.698;19.050;2022-12-11T05:06:48;1.97;88.67
64937;SHT30;51452;47.698;19.050;2022-12-11T05:09:14;2.03;88.75
64937;SHT30;51452;47.698;19.050;2022-12-11T05:11:39;2.00;89.18
64937;SHT30;51452;47.698;19.050;2022-12-11T05:14:05;2.03;88.77
64937;SHT30;51452;47.698;19.050;2022-12-11T05:16:30;1.93;89.03
64937;SHT30;51452;47.698;19.050;2022-12-11T05:18:56;1.92;89.63
64937;SHT30;51452;47.698;19.050;2022-12-11T05:21:21;1.90;89.25
64937;SHT30;51452;47.698;19.050;2022-12-11T05:23:46;1.93;89.46
64937;SHT30;51452;47.698;19.050;2022-12-11T05:26:17;1.97;89.60
64937;SHT30;51452;47.698;19.050;2022-12-11T05:28:44;1.96;89.40
64937;SHT30;51452;47.698;19.050;2022-12-11T05:31:15;1.96;89.19
64937;SHT30;51452;47.698;19.050;2022-12-11T05:33:41;1.95;89.05
64937;SHT30;51452;47.698;19.050;2022-12-11T05:36:07;1.90;88.75
64937;SHT30;51452;47.698;19.050;2022-12-11T05:38:33;1.92;89.26
64937;SHT30;51452;47.698;19.050;2022-12-11T05:41:01;1.87;89.08
64937;SHT30;51452;47.698;19.050;2022-12-11T05:43:28;1.89;89.29
64937;SHT30;51452;47.698;19.050;2022-12-11T05:45:55;1.83;89.42
64937;SHT30;51452;47.698;19.050;2022-12-11T05:48:21;1.82;89.43
64937;SHT30;51452;47.698;19.050;2022-12-11T05:50:59;1.85;89.78
64937;SHT30;51452;47.698;19.050;2022-12-11T05:53:26;1.85;89.49
64937;SHT30;51452;47.698;19.050;2022-12-11T05:55:51;1.86;89.57
64937;SHT30;51452;47.698;19.050;2022-12-11T05:58:17;1.79;88.83
64937;SHT30;51452;47.698;19.050;2022-12-11T06:00:42;1.69;89.53
64937;SHT30;51452;47.698;19.050;2022-12-11T06:03:10;1.69;89.50
64937;SHT30;51452;47.698;19.050;2022-12-11T06:05:37;1.70;89.94
64937;SHT30;51452;47.698;19.050;2022-12-11T06:08:02;1.70;89.80
64937;SHT30;51452;47.698;19.050;2022-12-11T06:10:28;1.69;89.75
64937;SHT30;51452;47.698;19.050;2022-12-11T06:12:53;1.70;89.47
64937;SHT30;51452;47.698;19.050;2022-12-11T06:15:19;1.66;89.28
64937;SHT30;51452;47.698;19.050;2022-12-11T06:17:44;1.76;89.61
64937;SHT30;51452;47.698;19.050;2022-12-11T06:20:10;1.72;89.46
64937;SHT30;51452;47.698;19.050;2022-12-11T06:22:35;1.79;89.46
64937;SHT30;51452;47.698;19.050;2022-12-11T06:25:00;1.73;89.06
64937;SHT30;51452;47.698;19.050;2022-12-11T06:27:26;1.72;89.04
64937;SHT30;51452;47.698;19.050;2022-12-11T06:29:51;1.70;88.99
64937;SHT30;51452;47.698;19.050;2022-12-11T06:32:16;1.73;89.71
64937;SHT30;51452;47.698;19.050;2022-12-11T06:34:42;1.70;89.47
64937;SHT30;51452;47.698;19.050;2022-12-11T06:37:07;1.76;89.54
64937;SHT30;51452;47.698;19.050;2022-12-11T06:39:33;1.76;89.46
64937;SHT30;51452;47.698;19.050;2022-12-11T06:41:58;1.72;89.29
64937;SHT30;51452;47.698;19.050;2022-12-11T06:44:23;1.76;88.73
64937;SHT30;51452;47.698;19.050;2022-12-11T06:46:49;1.75;89.01
64937;SHT30;51452;47.698;19.050;2022-12-11T06:49:15;1.70;89.39
64937;SHT30;51452;47.698;19.050;2022-12-11T06:51:40;1.63;88.99
64937;SHT30;51452;47.698;19.050;2022-12-11T06:54:05;1.62;89.36
64937;SHT30;51452;47.698;19.050;2022-12-11T06:56:33;1.67;89.55
64937;SHT30;51452;47.698;19.050;2022-12-11T06:58:58;1.76;89.41
64937;SHT30;51452;47.698;19.050;2022-12-11T07:01:25;1.67;89.68
64937;SHT30;51452;47.698;19.050;2022-12-11T07:03:52;1.67;89.39
64937;SHT30;51452;47.698;19.050;2022-12-11T07:06:18;1.66;88.97
64937;SHT30;51452;47.698;19.050;2022-12-11T07:08:43;1.63;89.02
64937;SHT30;51452;47.698;19.050;2022-12-11T07:11:12;1.60;89.37
64937;SHT30;51452;47.698;19.050;2022-12-11T07:13:37;1.65;89.36
64937;SHT30;51452;47.698;19.050;2022-12-11T07:16:04;1.63;89.09
64937;SHT30;51452;47.698;19.050;2022-12-11T07:18:41;1.63;89.06
64937;SHT30;51452;47.698;19.050;2022-12-11T07:21:09;1.66;88.75
64937;SHT30;51452;47.698;19.050;2022-12-11T07:23:35;1.69;89.37
64937;SHT30;51452;47.698;19.050;2022-12-11T07:26:06;1.77;89.13
64937;SHT30;51452;47.698;19.050;2022-12-11T07:28:32;1.72;89.07
64937;SHT30;51452;47.698;19.050;2022-12-11T07:30:58;1.82;89.00
64937;SHT30;51452;47.698;19.050;2022-12-11T07:33:24;1.79;88.36
64937;SHT30;51452;47.698;19.050;2022-12-11T07:35:49;1.86;88.62
64937;SHT30;51452;47.698;19.050;2022-12-11T07:38:15;1.85;88.43
64937;SHT30;51452;47.698;19.050;2022-12-11T07:40:40;1.86;87.83
64937;SHT30;51452;47.698;19.050;2022-12-11T07:43:05;1.89;88.10
64937;SHT30;51452;47.698;19.050;2022-12-11T07:45:31;1.97;87.91
64937;SHT30;51452;47.698;19.050;2022-12-11T07:47:56;2.00;87.64
64937;SHT30;51452;47.698;19.050;2022-12-11T07:50:22;2.07;87.78
64937;SHT30;51452;47.698;19.050;2022-12-11T07:52:47;1.99;87.39
64937;SHT30;51452;47.698;19.050;2022-12-11T07:55:13;2.10;87.02
64937;SHT30;51452;47.698;19.050;2022-12-11T07:57:38;2.03;86.33
64937;SHT30;51452;47.698;19.050;2022-12-11T08:00:05;2.07;86.32
64937;SHT30;51452;47.698;19.050;2022-12-11T08:02:30;2.17;86.91
64937;SHT30;51452;47.698;19.050;2022-12-11T08:04:55;2.16;86.00
64937;SHT30;51452;47.698;19.050;2022-12-11T08:07:21;2.17;86.30
64937;SHT30;51452;47.698;19.050;2022-12-11T08:09:46;2.30;85.98
64937;SHT30;51452;47.698;19.050;2022-12-11T08:12:12;2.38;86.24
64937;SHT30;51452;47.698;19.050;2022-12-11T08:14:37;2.27;84.82
64937;SHT30;51452;47.698;19.050;2022-12-11T08:17:03;2.35;85.45
64937;SHT30;51452;47.698;19.050;2022-12-11T08:19:28;2.40;85.71
64937;SHT30;51452;47.698;19.050;2022-12-11T08:21:53;2.48;85.02
64937;SHT30;51452;47.698;19.050;2022-12-11T08:24:19;2.44;85.04
64937;SHT30;51452;47.698;19.050;2022-12-11T08:26:45;2.44;84.22
64937;SHT30;51452;47.698;19.050;2022-12-11T08:29:10;2.30;84.03
64937;SHT30;51452;47.698;19.050;2022-12-11T08:31:37;2.33;85.27
64937;SHT30;51452;47.698;19.050;2022-12-11T08:34:03;2.31;84.92
64937;SHT30;51452;47.698;19.050;2022-12-11T08:36:29;2.31;84.40
64937;SHT30;51452;47.698;19.050;2022-12-11T08:38:55;2.23;83.82
64937;SHT30;51452;47.698;19.050;2022-12-11T08:41:28;2.27;84.71
64937;SHT30;51452;47.698;19.050;2022-12-11T08:43:55;2.30;84.71
64937;SHT30;51452;47.698;19.050;2022-12-11T08:46:24;2.42;85.09
64937;SHT30;51452;47.698;19.050;2022-12-11T08:48:51;2.40;84.22
64937;SHT30;51452;47.698;19.050;2022-12-11T08:51:19;2.33;83.92
64937;SHT30;51452;47.698;19.050;2022-12-11T08:53:45;2.28;84.97
64937;SHT30;51452;47.698;19.050;2022-12-11T08:56:15;2.33;83.59
64937;SHT30;51452;47.698;19.050;2022-12-11T08:58:42;2.33;84.32
64937;SHT30;51452;47.698;19.050;2022-12-11T09:01:13;2.37;84.35
64937;SHT30;51452;47.698;19.050;2022-12-11T09:03:40;2.31;83.41
64937;SHT30;51452;47.698;19.050;2022-12-11T09:06:07;2.24;83.85
64937;SHT30;51452;47.698;19.050;2022-12-11T09:08:33;2.24;84.26
64937;SHT30;51452;47.698;19.050;2022-12-11T09:11:07;2.20;84.15
64937;SHT30;51452;47.698;19.050;2022-12-11T09:13:33;2.13;83.68
64937;SHT30;51452;47.698;19.050;2022-12-11T09:15:58;2.11;84.55
64937;SHT30;51452;47.698;19.050;2022-12-11T09:18:24;2.16;84.56
64937;SHT30;51452;47.698;19.050;2022-12-11T09:21:00;2.11;83.77
64937;SHT30;51452;47.698;19.050;2022-12-11T09:23:26;2.13;83.80
64937;SHT30;51452;47.698;19.050;2022-12-11T09:25:51;2.13;84.58
64937;SHT30;51452;47.698;19.050;2022-12-11T09:28:17;2.14;84.53
64937;SHT30;51452;47.698;19.050;2022-12-11T09:30:42;2.10;84.53
64937;SHT30;51452;47.698;19.050;2022-12-11T09:33:08;2.06;84.68
64937;SHT30;51452;47.698;19.050;2022-12-11T09:35:33;2.10;84.24
64937;SHT30;51452;47.698;19.050;2022-12-11T09:37:58;1.99;83.35
64937;SHT30;51452;47.698;19.050;2022-12-11T09:40:24;2.07;84.21
64937;SHT30;51452;47.698;19.050;2022-12-11T09:42:53;2.00;83.51
64937;SHT30;51452;47.698;19.050;2022-12-11T09:45:22;2.16;83.91
64937;SHT30;51452;47.698;19.050;2022-12-11T09:47:51;2.14;83.84
64937;SHT30;51452;47.698;19.050;2022-12-11T09:50:22;2.13;83.82
64937;SHT30;51452;47.698;19.050;2022-12-11T09:55:35;2.17;83.28
64937;SHT30;51452;47.698;19.050;2022-12-11T10:06:13;2.11;82.78
64937;SHT30;51452;47.698;19.050;2022-12-11T10:16:54;2.16;82.18
64937;SHT30;51452;47.698;19.050;2022-12-11T10:19:29;2.11;81.39
64937;SHT30;51452;47.698;19.050;2022-12-11T10:21:55;2.20;81.63
64937;SHT30;51452;47.698;19.050;2022-12-11T10:24:37;2.20;82.16
64937;SHT30;51452;47.698;19.050;2022-12-11T10:27:21;2.21;81.44
64937;SHT30;51452;47.698;19.050;2022-12-11T10:29:50;2.30;82.08
64937;SHT30;51452;47.698;19.050;2022-12-11T10:32:24;2.18;81.72
64937;SHT30;51452;47.698;19.050;2022-12-11T10:35:00;2.17;80.74
64937;SHT30;51452;47.698;19.050;2022-12-11T10:37:27;2.16;80.80
64937;SHT30;51452;47.698;19.050;2022-12-11T10:39:52;2.18;80.78
64937;SHT30;51452;47.698;19.050;2022-12-11T10:42:21;2.17;81.55
64937;SHT30;51452;47.698;19.050;2022-12-11T10:45:01;2.11;81.15
64937;SHT30;51452;47.698;19.050;2022-12-11T10:47:27;2.13;80.75
64937;SHT30;51452;47.698;19.050;2022-12-11T10:49:56;2.20;80.76
64937;SHT30;51452;47.698;19.050;2022-12-11T10:52:37;2.14;80.62
64937;SHT30;51452;47.698;19.050;2022-12-11T10:57:41;2.26;81.07
64937;SHT30;51452;47.698;19.050;2022-12-11T11:00:27;2.24;80.09
64937;SHT30;51452;47.698;19.050;2022-12-11T11:02:53;2.21;80.48
64937;SHT30;51452;47.698;19.050;2022-12-11T11:05:32;2.18;79.07
64937;SHT30;51452;47.698;19.050;2022-12-11T11:08:19;2.21;79.81
64937;SHT30;51452;47.698;19.050;2022-12-11T11:10:55;2.17;79.72
64937;SHT30;51452;47.698;19.050;2022-12-11T11:13:22;2.16;79.78
64937;SHT30;51452;47.698;19.050;2022-12-11T11:15:49;2.26;80.02
64937;SHT30;51452;47.698;19.050;2022-12-11T11:18:24;2.20;78.95
64937;SHT30;51452;47.698;19.050;2022-12-11T11:20:51;2.21;79.54
64937;SHT30;51452;47.698;19.050;2022-12-11T11:23:19;2.21;78.60
64937;SHT30;51452;47.698;19.050;2022-12-11T11:25:54;2.23;79.17
64937;SHT30;51452;47.698;19.050;2022-12-11T11:28:33;2.20;78.94
64937;SHT30;51452;47.698;19.050;2022-12-11T11:31:06;2.20;78.80
64937;SHT30;51452;47.698;19.050;2022-12-11T11:33:34;2.21;79.53
64937;SHT30;51452;47.698;19.050;2022-12-11T11:36:05;2.13;78.95
64937;SHT30;51452;47.698;19.050;2022-12-11T11:38:39;2.17;78.73
64937;SHT30;51452;47.698;19.050;2022-12-11T11:41:54;2.13;78.43
64937;SHT30;51452;47.698;19.050;2022-12-11T11:44:01;2.17;78.08
64937;SHT30;51452;47.698;19.050;2022-12-11T11:46:32;2.18;79.84
64937;SHT30;51452;47.698;19.050;2022-12-11T11:54:41;2.20;80.78
64937;SHT30;51452;47.698;19.050;2022-12-11T11:59:51;2.11;80.35
64937;SHT30;51452;47.698;19.050;2022-12-11T12:02:17;2.17;80.53
64937;SHT30;51452;47.698;19.050;2022-12-11T12:04:45;2.14;79.94
64937;SHT30;51452;47.698;19.050;2022-12-11T12:10:25;2.09;79.38
64937;SHT30;51452;47.698;19.050;2022-12-11T12:13:01;2.14;80.86
64937;SHT30;51452;47.698;19.050;2022-12-11T12:21:14;2.09;79.60
64937;SHT30;51452;47.698;19.050;2022-12-11T12:23:53;2.09;79.55
64937;SHT30;51452;47.698;19.050;2022-12-11T12:26:34;2.04;78.93
64937;SHT30;51452;47.698;19.050;2022-12-11T12:29:22;2.06;79.39
64937;SHT30;51452;47.698;19.050;2022-12-11T12:37:46;2.14;79.00
64937;SHT30;51452;47.698;19.050;2022-12-11T12:40:32;2.20;79.42
64937;SHT30;51452;47.698;19.050;2022-12-11T12:48:36;2.13;78.99
64937;SHT30;51452;47.698;19.050;2022-12-11T12:51:02;2.14;79.06
64937;SHT30;51452;47.698;19.050;2022-12-11T12:53:31;2.13;78.47
64937;SHT30;51452;47.698;19.050;2022-12-11T12:55:58;2.20;78.43
64937;SHT30;51452;47.698;19.050;2022-12-11T13:03:59;2.26;77.74
64937;SHT30;51452;47.698;19.050;2022-12-11T13:06:35;2.27;77.74
64937;SHT30;51452;47.698;19.050;2022-12-11T13:09:35;2.27;77.06
64937;SHT30;51452;47.698;19.050;2022-12-11T13:11:55;2.31;78.18
64937;SHT30;51452;47.698;19.050;2022-12-11T13:14:30;2.37;77.42
64937;SHT30;51452;47.698;19.050;2022-12-11T13:17:52;2.38;77.54
64937;SHT30;51452;47.698;19.050;2022-12-11T13:22:51;2.37;77.05
64937;SHT30;51452;47.698;19.050;2022-12-11T13:25:29;2.37;76.51
64937;SHT30;51452;47.698;19.050;2022-12-11T13:28:07;2.44;75.90
64937;SHT30;51452;47.698;19.050;2022-12-11T13:30:43;2.52;76.82
64937;SHT30;51452;47.698;19.050;2022-12-11T13:33:16;2.45;76.08
64937;SHT30;51452;47.698;19.050;2022-12-11T13:35:43;2.47;76.47
64937;SHT30;51452;47.698;19.050;2022-12-11T13:38:18;2.48;76.01
64937;SHT30;51452;47.698;19.050;2022-12-11T13:40:48;2.47;75.91
64937;SHT30;51452;47.698;19.050;2022-12-11T13:43:22;2.52;75.98
64937;SHT30;51452;47.698;19.050;2022-12-11T13:45:59;2.54;76.22
64937;SHT30;51452;47.698;19.050;2022-12-11T13:48:28;2.54;75.91
64937;SHT30;51452;47.698;19.050;2022-12-11T13:50:55;2.51;75.39
64937;SHT30;51452;47.698;19.050;2022-12-11T13:53:22;2.57;75.95
64937;SHT30;51452;47.698;19.050;2022-12-11T13:56:00;2.45;75.84
64937;SHT30;51452;47.698;19.050;2022-12-11T13:58:27;2.42;76.13
64937;SHT30;51452;47.698;19.050;2022-12-11T14:01:03;2.41;75.72
64937;SHT30;51452;47.698;19.050;2022-12-11T14:03:31;2.49;76.33
64937;SHT30;51452;47.698;19.050;2022-12-11T14:05:58;2.44;75.46
64937;SHT30;51452;47.698;19.050;2022-12-11T14:08:30;2.48;75.90
64937;SHT30;51452;47.698;19.050;2022-12-11T14:10:57;2.47;74.72
64937;SHT30;51452;47.698;19.050;2022-12-11T14:13:24;2.37;74.76
64937;SHT30;51452;47.698;19.050;2022-12-11T14:15:52;2.31;75.53
64937;SHT30;51452;47.698;19.050;2022-12-11T14:18:37;2.33;75.41
64937;SHT30;51452;47.698;19.050;2022-12-11T14:21:04;2.34;75.70
64937;SHT30;51452;47.698;19.050;2022-12-11T14:23:33;2.27;74.19
64937;SHT30;51452;47.698;19.050;2022-12-11T14:26:01;2.31;75.20
64937;SHT30;51452;47.698;19.050;2022-12-11T14:28:34;2.34;74.69
64937;SHT30;51452;47.698;19.050;2022-12-11T14:31:00;2.26;74.91
64937;SHT30;51452;47.698;19.050;2022-12-11T14:33:34;2.26;74.57
64937;SHT30;51452;47.698;19.050;2022-12-11T14:36:02;2.27;74.69
64937;SHT30;51452;47.698;19.050;2022-12-11T14:38:34;2.27;74.66
64937;SHT30;51452;47.698;19.050;2022-12-11T14:41:07;2.23;74.31
64937;SHT30;51452;47.698;19.050;2022-12-11T14:43:42;2.23;75.00
64937;SHT30;51452;47.698;19.050;2022-12-11T14:46:26;2.20;74.86
64937;SHT30;51452;47.698;19.050;2022-12-11T14:49:01;2.21;75.03
64937;SHT30;51452;47.698;19.050;2022-12-11T14:51:34;2.17;74.41
64937;SHT30;51452;47.698;19.050;2022-12-11T14:54:03;2.28;75.58
64937;SHT30;51452;47.698;19.050;2022-12-11T14:56:28;2.26;75.51
64937;SHT30;51452;47.698;19.050;2022-12-11T14:58:57;2.21;75.36
64937;SHT30;51452;47.698;19.050;2022-12-11T15:01:29;2.11;74.57
64937;SHT30;51452;47.698;19.050;2022-12-11T15:06:33;2.16;75.12
64937;SHT30;51452;47.698;19.050;2022-12-11T15:11:41;2.13;74.57
64937;SHT30;51452;47.698;19.050;2022-12-11T15:14:08;2.04;75.10
64937;SHT30;51452;47.698;19.050;2022-12-11T15:16:37;2.03;75.04
64937;SHT30;51452;47.698;19.050;2022-12-11T15:19:03;2.04;75.58
64937;SHT30;51452;47.698;19.050;2022-12-11T15:21:34;1.93;75.12
64937;SHT30;51452;47.698;19.050;2022-12-11T15:24:02;1.90;75.47
64937;SHT30;51452;47.698;19.050;2022-12-11T15:29:21;1.90;75.59
64937;SHT30;51452;47.698;19.050;2022-12-11T15:34:49;1.83;75.65
64937;SHT30;51452;47.698;19.050;2022-12-11T15:37:25;1.75;75.01
64937;SHT30;51452;47.698;19.050;2022-12-11T15:39:52;1.75;75.55
64937;SHT30;51452;47.698;19.050;2022-12-11T15:42:39;1.75;75.01
64937;SHT30;51452;47.698;19.050;2022-12-11T15:45:07;1.77;75.51
64937;SHT30;51452;47.698;19.050;2022-12-11T15:47:33;1.73;75.31
64937;SHT30;51452;47.698;19.050;2022-12-11T15:50:16;1.79;75.56
64937;SHT30;51452;47.698;19.050;2022-12-11T15:52:43;1.75;75.28
64937;SHT30;51452;47.698;19.050;2022-12-11T15:55:09;1.72;75.12
64937;SHT30;51452;47.698;19.050;2022-12-11T15:57:35;1.75;75.03
64937;SHT30;51452;47.698;19.050;2022-12-11T16:00:02;1.76;74.92
64937;SHT30;51452;47.698;19.050;2022-12-11T16:02:28;1.75;74.67
64937;SHT30;51452;47.698;19.050;2022-12-11T16:04:53;1.66;74.25
64937;SHT30;51452;47.698;19.050;2022-12-11T16:07:21;1.67;74.85
64937;SHT30;51452;47.698;19.050;2022-12-11T16:09:48;1.60;74.70
64937;SHT30;51452;47.698;19.050;2022-12-11T16:12:14;1.52;74.62
64937;SHT30;51452;47.698;19.050;2022-12-11T16:14:41;1.49;74.76
64937;SHT30;51452;47.698;19.050;2022-12-11T16:17:07;1.56;74.90
64937;SHT30;51452;47.698;19.050;2022-12-11T16:19:35;1.58;75.00
64937;SHT30;51452;47.698;19.050;2022-12-11T16:22:02;1.54;74.49
64937;SHT30;51452;47.698;19.050;2022-12-11T16:24:28;1.39;74.33
64937;SHT30;51452;47.698;19.050;2022-12-11T16:26:53;1.48;74.25
64937;SHT30;51452;47.698;19.050;2022-12-11T16:29:19;1.41;74.08
64937;SHT30;51452;47.698;19.050;2022-12-11T16:31:45;1.42;74.75
64937;SHT30;51452;47.698;19.050;2022-12-11T16:34:10;1.36;74.19
64937;SHT30;51452;47.698;19.050;2022-12-11T16:36:36;1.42;73.87
64937;SHT30;51452;47.698;19.050;2022-12-11T16:39:02;1.36;73.70
64937;SHT30;51452;47.698;19.050;2022-12-11T16:41:28;1.31;74.09
64937;SHT30;51452;47.698;19.050;2022-12-11T16:43:54;1.31;73.90
64937;SHT30;51452;47.698;19.050;2022-12-11T16:46:21;1.28;73.63
64937;SHT30;51452;47.698;19.050;2022-12-11T16:48:47;1.32;73.82
64937;SHT30;51452;47.698;19.050;2022-12-11T16:51:15;1.27;73.60
64937;SHT30;51452;47.698;19.050;2022-12-11T16:53:41;1.27;73.77
64937;SHT30;51452;47.698;19.050;2022-12-11T16:56:07;1.28;74.14
64937;SHT30;51452;47.698;19.050;2022-12-11T16:58:33;1.28;73.90
64937;SHT30;51452;47.698;19.050;2022-12-11T17:00:59;1.28;74.01
64937;SHT30;51452;47.698;19.050;2022-12-11T17:03:29;1.31;74.10
64937;SHT30;51452;47.698;19.050;2022-12-11T17:05:55;1.24;73.89
64937;SHT30;51452;47.698;19.050;2022-12-11T17:08:21;1.15;73.77
64937;SHT30;51452;47.698;19.050;2022-12-11T17:10:47;1.18;73.80
64937;SHT30;51452;47.698;19.050;2022-12-11T17:13:12;1.15;73.81
64937;SHT30;51452;47.698;19.050;2022-12-11T17:15:39;1.15;74.01